Time;durP1;ratioP1;P1;durP2;ratioP2;P2;SDS_P1;SDS_P2;PMS_P1;PMS_P2;Temp;Humidity;BMP_temperature;BMP_pressure;BME280_temperature;BME280_humidity;BME280_pressure;Samples;Min_cycle;Max_cycle;Signal;HPM_P1;HPM_P2
2024/01/11 05:22:32;;;;;;;9.77;4.75;;;;;;;-5.87;100.00;101415.66;5109772;27;20170;-34
2024/01/11 05:24:58;;;;;;;18.45;7.78;;;;;;;-5.93;100.00;101417.56;5108355;28;20036;-34
2024/01/11 05:27:23;;;;;;;17.50;9.65;;;;;;;-5.96;100.00;101413.31;5109596;28;20237;-34
2024/01/11 05:29:48;;;;;;;12.13;6.70;;;;;;;-5.94;100.00;101411.53;5109612;28;20039;-34
2024/01/11 05:32:14;;;;;;;15.75;7.75;;;;;;;-5.94;100.00;101423.66;5109593;28;20487;-34
2024/01/11 05:34:39;;;;;;;15.15;8.25;;;;;;;-5.99;100.00;101431.56;5109538;28;20042;-34
2024/01/11 05:37:05;;;;;;;15.43;10.23;;;;;;;-5.94;100.00;101437.47;5109130;28;20085;-34
2024/01/11 05:39:30;;;;;;;14.75;7.93;;;;;;;-5.92;100.00;101440.06;5109558;28;20547;-34
2024/01/11 05:41:55;;;;;;;14.50;10.15;;;;;;;-5.91;100.00;101441.75;5109383;28;20043;-33
2024/01/11 05:44:21;;;;;;;14.68;8.57;;;;;;;-6.02;100.00;101429.03;5109349;28;20044;-33
2024/01/11 05:46:46;;;;;;;17.45;9.45;;;;;;;-5.96;100.00;101436.69;5107834;28;20043;-33
2024/01/11 05:49:12;;;;;;;14.40;8.32;;;;;;;-5.98;100.00;101441.06;5109315;28;20047;-33
2024/01/11 05:51:37;;;;;;;17.05;10.88;;;;;;;-5.88;100.00;101439.88;5109352;28;20040;-33
2024/01/11 05:54:02;;;;;;;16.63;10.32;;;;;;;-5.99;100.00;101434.19;5109192;28;20036;-33
2024/01/11 05:56:28;;;;;;;16.83;9.93;;;;;;;-5.93;100.00;101436.63;5104283;28;20044;-33
2024/01/11 05:58:53;;;;;;;19.08;11.10;;;;;;;-6.01;100.00;101444.56;5107605;28;20597;-34
2024/01/11 06:01:19;;;;;;;20.65;10.80;;;;;;;-5.82;100.00;101444.06;5112772;28;20027;-34
2024/01/11 06:03:44;;;;;;;14.45;9.48;;;;;;;-6.00;100.00;101448.00;5107061;27;20479;-33
2024/01/11 06:06:09;;;;;;;17.98;9.18;;;;;;;-5.95;100.00;101448.75;5108038;28;20495;-32
2024/01/11 06:08:35;;;;;;;21.33;11.18;;;;;;;-5.98;100.00;101445.41;5108713;28;20043;-34
2024/01/11 06:11:00;;;;;;;18.15;9.63;;;;;;;-6.08;100.00;101437.84;5112920;28;20398;-34
2024/01/11 06:13:26;;;;;;;16.65;9.65;;;;;;;-6.02;100.00;101434.25;5107748;28;20083;-33
2024/01/11 06:15:51;;;;;;;19.00;9.57;;;;;;;-6.05;100.00;101445.56;5107803;28;20044;-33
2024/01/11 06:18:17;;;;;;;14.93;8.20;;;;;;;-5.97;100.00;101449.69;5107959;28;20036;-34
2024/01/11 06:20:42;;;;;;;15.02;10.00;;;;;;;-6.03;100.00;101453.28;5107647;28;20032;-35
2024/01/11 06:23:07;;;;;;;19.15;8.20;;;;;;;-5.99;100.00;101462.72;5106990;28;20384;-34
2024/01/11 06:25:33;;;;;;;10.70;7.18;;;;;;;-5.99;100.00;101454.09;5107891;28;20097;-33
2024/01/11 06:27:59;;;;;;;20.02;10.10;;;;;;;-5.98;100.00;101453.19;5107883;28;20043;-34
2024/01/11 06:30:24;;;;;;;15.00;9.00;;;;;;;-6.05;100.00;101458.53;5108328;28;20046;-34
2024/01/11 06:32:49;;;;;;;16.48;9.10;;;;;;;-6.03;100.00;101454.16;5100830;28;20044;-35
2024/01/11 06:35:15;;;;;;;14.65;7.80;;;;;;;-5.99;100.00;101459.28;5094902;28;20047;-34
2024/01/11 06:37:40;;;;;;;9.13;6.00;;;;;;;-5.87;100.00;101454.59;5094383;28;20123;-36
2024/01/11 06:40:08;;;;;;;15.10;9.80;;;;;;;-5.94;100.00;101455.66;5094671;28;20040;-36
2024/01/11 06:42:33;;;;;;;16.35;9.60;;;;;;;-5.86;100.00;101456.28;5094767;28;20086;-34
2024/01/11 06:44:58;;;;;;;16.58;10.70;;;;;;;-5.93;100.00;101451.31;5094719;28;20048;-34
2024/01/11 06:47:24;;;;;;;18.08;9.93;;;;;;;-5.87;100.00;101452.00;5094346;28;20039;-35
2024/01/11 06:49:49;;;;;;;13.23;8.30;;;;;;;-5.92;100.00;101458.22;5094694;28;20040;-35
2024/01/11 06:52:15;;;;;;;19.20;10.70;;;;;;;-5.84;100.00;101462.28;5094700;28;20032;-35
2024/01/11 06:54:40;;;;;;;18.02;8.43;;;;;;;-5.83;100.00;101451.00;5094486;28;20523;-35
2024/01/11 06:57:05;;;;;;;16.27;9.75;;;;;;;-5.87;100.00;101470.16;5094061;28;20093;-35
2024/01/11 06:59:31;;;;;;;10.38;6.80;;;;;;;-5.80;100.00;101474.31;5094346;28;20036;-35
2024/01/11 07:01:56;;;;;;;9.73;5.53;;;;;;;-5.76;100.00;101477.66;5094226;28;20040;-34
2024/01/11 07:04:21;;;;;;;14.77;9.60;;;;;;;-5.80;100.00;101479.50;5094131;28;20062;-36
2024/01/11 07:06:47;;;;;;;16.15;9.35;;;;;;;-5.80;100.00;101491.63;5093819;28;20047;-33
2024/01/11 07:09:12;;;;;;;17.77;9.82;;;;;;;-5.72;100.00;101494.88;5093950;28;20038;-32
2024/01/11 07:11:38;;;;;;;13.07;7.40;;;;;;;-5.69;100.00;101499.97;5093191;28;20029;-33
2024/01/11 07:14:04;;;;;;;15.55;9.73;;;;;;;-5.75;100.00;101490.59;5093204;28;20036;-34
2024/01/11 07:16:29;;;;;;;12.60;7.03;;;;;;;-5.77;100.00;101492.38;5094705;28;20028;-36
2024/01/11 07:18:55;;;;;;;19.85;10.40;;;;;;;-5.76;100.00;101498.41;5100004;28;20085;-33
2024/01/11 07:21:29;;;;;;;16.55;9.57;;;;;;;-5.81;100.00;101495.94;5099240;28;20499;-33
2024/01/11 07:23:56;;;;;;;16.30;9.25;;;;;;;-5.79;100.00;101512.34;5099610;28;20043;-33
2024/01/11 07:26:23;;;;;;;12.57;7.85;;;;;;;-5.69;100.00;101515.53;5096405;28;20054;-36
2024/01/11 07:28:48;;;;;;;14.02;9.55;;;;;;;-5.63;100.00;101519.72;5094028;28;20036;-34
2024/01/11 07:31:13;;;;;;;15.63;8.65;;;;;;;-5.76;100.00;101517.44;5093892;28;20430;-34
2024/01/11 07:33:39;;;;;;;12.38;6.97;;;;;;;-5.71;100.00;101525.13;5093722;28;20105;-34
2024/01/11 07:36:05;;;;;;;11.45;7.30;;;;;;;-5.73;100.00;101526.91;5093384;28;20036;-34
2024/01/11 07:38:31;;;;;;;15.02;8.85;;;;;;;-5.66;100.00;101532.81;5093237;28;20040;-36
2024/01/11 07:40:56;;;;;;;16.58;9.45;;;;;;;-5.68;100.00;101537.16;5093472;28;20085;-35
2024/01/11 07:43:22;;;;;;;12.70;7.68;;;;;;;-5.67;100.00;101538.84;5093266;28;20495;-34
2024/01/11 07:45:47;;;;;;;15.27;8.93;;;;;;;-5.55;100.00;101543.75;5092796;28;20056;-35
2024/01/11 07:48:13;;;;;;;13.60;6.68;;;;;;;-5.52;100.00;101541.94;5093127;28;20438;-35
2024/01/11 07:50:38;;;;;;;18.48;11.00;;;;;;;-5.12;100.00;101547.81;5093364;28;20499;-34
2024/01/11 07:53:05;;;;;;;19.00;10.18;;;;;;;-4.57;100.00;101531.47;5093562;28;20048;-35
2024/01/11 07:55:31;;;;;;;18.55;9.05;;;;;;;-4.27;100.00;101540.13;5093271;28;20407;-35
2024/01/11 07:57:56;;;;;;;8.40;4.57;;;;;;;-4.47;100.00;101550.28;5093322;28;20047;-35
2024/01/11 08:00:22;;;;;;;13.75;8.63;;;;;;;-3.67;100.00;101556.41;5093306;28;20035;-34
2024/01/11 08:02:47;;;;;;;13.75;7.13;;;;;;;-3.80;97.88;101561.19;5093372;28;20040;-33
2024/01/11 08:05:13;;;;;;;15.45;8.75;;;;;;;-3.19;95.99;101574.75;5093049;28;20059;-33
2024/01/11 08:07:38;;;;;;;15.07;9.88;;;;;;;-2.95;92.30;101566.97;5092838;28;20431;-34
2024/01/11 08:10:04;;;;;;;13.50;8.20;;;;;;;-2.92;89.58;101572.09;5100409;28;20085;-33
2024/01/11 08:12:30;;;;;;;13.60;9.38;;;;;;;-2.41;87.92;101584.09;5093278;28;20059;-33
2024/01/11 08:14:55;;;;;;;17.45;9.82;;;;;;;-0.75;79.05;101571.16;5086247;28;20032;-33
2024/01/11 08:17:21;;;;;;;15.18;9.95;;;;;;;-0.39;73.82;101569.50;5081442;28;20133;-36
2024/01/11 08:19:46;;;;;;;15.25;9.15;;;;;;;-1.13;73.77;101581.53;5083829;28;20044;-33
2024/01/11 08:22:12;;;;;;;23.15;11.23;;;;;;;0.13;71.03;101569.66;5080962;28;20505;-40
2024/01/11 08:24:38;;;;;;;14.65;10.20;;;;;;;-0.79;74.28;101572.19;5082828;28;20048;-33
2024/01/11 08:27:04;;;;;;;13.98;7.90;;;;;;;-1.52;73.62;101577.06;5081934;28;20063;-34
2024/01/11 08:29:29;;;;;;;18.80;10.23;;;;;;;-0.44;73.64;101574.06;5081190;28;20096;-34
2024/01/11 08:31:56;;;;;;;16.42;9.40;;;;;;;-0.13;71.34;101575.25;5080916;28;20044;-35
2024/01/11 08:34:21;;;;;;;20.30;11.10;;;;;;;1.09;65.63;101571.78;5081983;28;20043;-34
2024/01/11 08:36:47;;;;;;;16.73;9.75;;;;;;;0.70;66.51;101569.44;5082571;28;20032;-36
2024/01/11 08:39:14;;;;;;;16.60;11.27;;;;;;;0.17;67.91;101558.06;5080767;28;20174;-36
2024/01/11 08:41:39;;;;;;;17.38;10.70;;;;;;;0.10;70.06;101566.31;5079627;28;20047;-38
2024/01/11 08:44:07;;;;;;;15.50;11.07;;;;;;;1.61;68.40;101561.97;5072016;28;20049;-35
2024/01/11 08:46:33;;;;;;;;;;;;;;;-0.12;69.10;101567.34;5072359;28;20400;-36
2024/01/11 08:49:00;;;;;;;16.27;9.60;;;;;;;1.01;67.47;101558.22;5072017;28;19912;-37
2024/01/11 08:51:26;;;;;;;16.17;10.38;;;;;;;0.71;63.54;101565.88;5072090;28;20476;-34
2024/01/11 08:53:52;;;;;;;16.88;10.25;;;;;;;1.49;63.50;101559.16;5078048;28;20040;-35
2024/01/11 08:56:18;;;;;;;14.13;9.35;;;;;;;1.43;63.18;101562.09;5091685;28;20032;-35
2024/01/11 08:58:43;;;;;;;17.15;9.80;;;;;;;0.43;65.31;101569.88;5092209;28;20050;-35
2024/01/11 09:01:09;;;;;;;16.65;10.52;;;;;;;1.21;67.52;101563.25;5083101;28;20044;-36
2024/01/11 09:03:35;;;;;;;15.98;10.85;;;;;;;0.12;66.53;101567.91;5080502;28;20033;-39
2024/01/11 09:06:01;;;;;;;16.15;9.43;;;;;;;-0.45;67.58;101561.06;5081541;28;20036;-39
2024/01/11 09:08:27;;;;;;;16.90;11.18;;;;;;;0.35;65.58;101568.59;5082038;28;20442;-37
2024/01/11 09:10:53;;;;;;;20.52;13.20;;;;;;;1.59;64.04;101555.94;5080549;28;20089;-36
2024/01/11 09:13:18;;;;;;;17.70;12.65;;;;;;;0.73;64.16;101557.03;5081792;28;20047;-36
2024/01/11 09:15:44;;;;;;;15.15;9.90;;;;;;;-0.34;66.67;101554.38;5081818;28;20059;-36
2024/01/11 09:18:09;;;;;;;14.70;9.82;;;;;;;-0.60;68.51;101573.06;5080059;28;20389;-42
2024/01/11 09:20:35;;;;;;;19.58;11.93;;;;;;;0.21;66.85;101567.50;5082265;28;20391;-40
2024/01/11 09:23:03;;;;;;;17.48;11.35;;;;;;;1.26;65.01;101568.28;5081126;28;20043;-38
2024/01/11 09:25:30;;;;;;;16.15;12.23;;;;;;;0.66;65.45;101568.75;5080542;28;20070;-42
2024/01/11 09:27:55;;;;;;;14.82;10.15;;;;;;;0.52;64.20;101560.72;5080125;28;20040;-42
2024/01/11 09:30:20;;;;;;;17.10;11.40;;;;;;;-0.43;68.26;101565.31;5081532;28;20036;-44
2024/01/11 09:32:47;;;;;;;18.75;12.25;;;;;;;-0.34;69.21;101564.00;5080679;28;20690;-43
2024/01/11 09:35:13;;;;;;;19.20;11.15;;;;;;;0.86;64.61;101577.38;5080301;28;20036;-43
2024/01/11 09:37:38;;;;;;;17.85;11.70;;;;;;;0.46;65.17;101577.63;5080326;28;20070;-43
2024/01/11 09:40:08;;;;;;;16.27;10.85;;;;;;;0.06;65.13;101577.84;5081492;28;20040;-43
2024/01/11 09:42:33;;;;;;;17.42;11.73;;;;;;;0.59;65.95;101590.09;5080038;28;20070;-41
2024/01/11 09:45:01;;;;;;;17.70;10.98;;;;;;;0.01;66.37;101579.88;5081628;28;20028;-38
2024/01/11 09:47:28;;;;;;;13.32;9.93;;;;;;;-0.56;69.74;101591.19;5081996;28;20406;-43
2024/01/11 09:49:56;;;;;;;18.30;11.63;;;;;;;0.21;65.95;101587.59;5081624;28;20033;-38
2024/01/11 09:52:22;;;;;;;15.32;9.60;;;;;;;-0.16;66.59;101581.50;5079947;28;20496;-41
2024/01/11 09:54:48;;;;;;;19.98;12.98;;;;;;;0.52;66.51;101576.44;5081482;28;20067;-43
2024/01/11 09:57:16;;;;;;;15.07;9.65;;;;;;;-0.04;66.97;101582.69;5081224;28;20562;-41
2024/01/11 09:59:42;;;;;;;11.43;8.82;;;;;;;0.25;65.68;101589.97;5079868;28;20028;-40
2024/01/11 10:02:11;;;;;;;17.80;12.30;;;;;;;0.59;64.35;101582.22;5081294;28;20082;-40
2024/01/11 10:04:37;;;;;;;18.15;12.07;;;;;;;1.28;65.10;101575.13;5081650;28;20111;-43
2024/01/11 10:07:05;;;;;;;11.50;8.32;;;;;;;1.03;62.75;101586.06;5074901;28;20116;-42
2024/01/11 10:09:31;;;;;;;16.75;11.75;;;;;;;2.35;61.23;101569.22;5086862;28;20028;-41
2024/01/11 10:11:56;;;;;;;15.80;11.35;;;;;;;1.32;62.07;101554.81;5084684;28;20384;-39
2024/01/11 10:14:22;;;;;;;17.48;11.18;;;;;;;0.86;61.27;101562.50;5084801;28;20043;-41
2024/01/11 10:16:48;;;;;;;17.88;12.15;;;;;;;2.17;57.64;101562.38;5082452;28;20044;-41
2024/01/11 10:19:16;;;;;;;10.85;7.47;;;;;;;-0.11;62.04;101560.31;5084052;28;20094;-41
2024/01/11 10:21:41;;;;;;;15.95;10.63;;;;;;;0.69;62.42;101558.09;5085340;28;20036;-41
2024/01/11 10:24:07;;;;;;;20.40;12.50;;;;;;;0.52;64.02;101556.34;5084099;28;20039;-40
2024/01/11 10:26:33;;;;;;;18.15;11.82;;;;;;;0.90;63.00;101550.03;5083878;28;20047;-39
2024/01/11 10:29:00;;;;;;;21.17;12.60;;;;;;;1.26;59.90;101556.00;5085319;28;20415;-38
2024/01/11 10:31:28;;;;;;;16.73;10.20;;;;;;;0.88;61.24;101558.00;5083589;28;20381;-39
2024/01/11 10:33:54;;;;;;;16.95;11.15;;;;;;;0.99;62.04;101550.44;5083846;28;20034;-39
2024/01/11 10:36:19;;;;;;;15.95;9.88;;;;;;;1.41;59.10;101551.69;5079597;28;20484;-42
2024/01/11 10:38:47;;;;;;;16.02;10.05;;;;;;;0.25;63.60;101547.19;5074492;28;20094;-40
2024/01/11 10:41:17;;;;;;;18.23;11.85;;;;;;;0.71;63.34;101556.22;5073319;28;20087;-40
2024/01/11 10:43:43;;;;;;;15.85;9.65;;;;;;;1.08;62.58;101556.97;5082131;28;20036;-42
2024/01/11 10:46:10;;;;;;;19.42;11.43;;;;;;;1.30;61.58;101567.16;5082784;28;20025;-43
2024/01/11 10:48:44;;;;;;;17.20;11.73;;;;;;;1.51;59.86;101552.06;5084233;28;20047;-40
2024/01/11 10:51:12;;;;;;;20.00;12.15;;;;;;;1.48;59.89;101550.44;5084053;28;20047;-42
2024/01/11 10:53:45;;;;;;;13.07;9.43;;;;;;;1.40;61.95;101557.88;5083899;28;20545;-41
2024/01/11 10:56:15;;;;;;;16.05;9.93;;;;;;;1.47;60.85;101561.88;5082671;28;20028;-40
2024/01/11 10:58:42;;;;;;;20.33;13.07;;;;;;;1.93;60.95;101558.50;5083564;28;20562;-41
2024/01/11 11:01:08;;;;;;;15.65;10.45;;;;;;;0.87;62.86;101556.31;5084755;28;20020;-41
2024/01/11 11:03:35;;;;;;;15.77;10.20;;;;;;;0.98;62.99;101564.47;5083358;28;20292;-41
2024/01/11 11:06:02;;;;;;;17.63;11.50;;;;;;;1.25;61.60;101564.81;5083462;28;20507;-40
2024/01/11 11:08:28;;;;;;;11.88;8.43;;;;;;;1.60;60.83;101555.00;5081758;28;20029;-42
2024/01/11 11:10:57;;;;;;;18.88;11.73;;;;;;;1.09;62.28;101546.38;5074045;28;20438;-43
2024/01/11 11:13:23;;;;;;;19.85;12.60;;;;;;;1.76;61.41;101547.16;5073813;28;20044;-39
2024/01/11 11:15:49;;;;;;;16.42;11.90;;;;;;;1.56;59.74;101542.13;5073861;28;20032;-43
2024/01/11 11:18:16;;;;;;;13.95;10.05;;;;;;;0.79;62.60;101554.09;5081506;28;20114;-41
2024/01/11 11:20:42;;;;;;;18.15;11.60;;;;;;;1.06;62.27;101548.34;5080221;28;20043;-43
2024/01/11 11:23:12;;;;;;;17.67;11.57;;;;;;;2.09;60.79;101543.56;5084270;28;20493;-42
2024/01/11 11:25:40;;;;;;;14.93;10.00;;;;;;;1.24;62.21;101542.13;5082683;28;20538;-39
2024/01/11 11:28:06;;;;;;;17.98;12.15;;;;;;;1.98;60.45;101540.69;5082640;28;20028;-43
2024/01/11 11:30:32;;;;;;;18.65;12.60;;;;;;;2.08;59.23;101544.47;5084354;28;20054;-40
2024/01/11 11:33:06;;;;;;;18.08;11.00;;;;;;;2.33;58.12;101536.88;5082736;28;20067;-43
2024/01/11 11:35:32;;;;;;;20.63;12.63;;;;;;;2.30;59.52;101531.81;5082078;28;20595;-43
2024/01/11 11:37:57;;;;;;;20.33;12.52;;;;;;;1.66;60.30;101530.19;5083502;28;20111;-42
2024/01/11 11:40:53;;;;;;;16.25;9.68;;;;;;;1.69;61.81;101519.50;5083157;28;20133;-40
2024/01/11 11:43:20;;;;;;;11.30;7.38;;;;;;;1.07;63.27;101523.78;5076627;28;20047;-40
2024/01/11 11:45:47;;;;;;;18.08;9.75;;;;;;;1.49;61.63;101522.38;5083393;28;20025;-41
2024/01/11 11:48:38;;;;;;;17.88;11.77;;;;;;;2.10;60.68;101508.47;5093226;28;20043;-41
2024/01/11 11:51:17;;;;;;;17.30;12.18;;;;;;;1.37;61.43;101508.16;5093384;28;20647;-42
2024/01/11 11:53:44;;;;;;;14.77;8.48;;;;;;;1.12;63.05;101513.88;5093363;28;20047;-39
2024/01/11 11:56:10;;;;;;;18.73;12.07;;;;;;;1.06;64.40;101515.06;5093130;28;20066;-43
2024/01/11 11:58:37;;;;;;;17.23;11.65;;;;;;;1.34;62.71;101509.16;5093179;28;20032;-42
2024/01/11 12:01:04;;;;;;;17.00;9.55;;;;;;;1.11;63.97;101495.56;5093090;28;20476;-42
2024/01/11 12:03:37;;;;;;;14.93;10.93;;;;;;;1.92;60.38;101494.56;5093190;28;20032;-43
2024/01/11 12:06:12;;;;;;;17.33;12.27;;;;;;;1.71;63.12;101480.88;5093105;28;20036;-40
2024/01/11 12:08:42;;;;;;;19.30;11.82;;;;;;;1.82;61.02;101486.34;5093053;28;20040;-42
2024/01/11 12:11:07;;;;;;;15.80;10.88;;;;;;;1.33;62.41;101489.09;5093069;28;20028;-39
2024/01/11 12:13:33;;;;;;;11.73;7.72;;;;;;;1.31;62.63;101488.34;5092924;28;20117;-42
2024/01/11 12:15:59;;;;;;;21.23;13.13;;;;;;;2.27;61.62;101484.63;5092811;28;20031;-42
2024/01/11 12:18:24;;;;;;;12.65;8.02;;;;;;;0.93;63.75;101492.19;5092544;28;20483;-42
2024/01/11 12:20:52;;;;;;;13.27;9.25;;;;;;;1.31;63.81;101483.09;5092646;28;20036;-40
2024/01/11 12:23:18;;;;;;;15.90;9.20;;;;;;;0.93;65.15;101486.94;5092863;28;20389;-43
2024/01/11 12:25:44;;;;;;;19.40;11.90;;;;;;;1.76;62.84;101481.47;5092665;28;20069;-42
2024/01/11 12:28:09;;;;;;;14.20;11.27;;;;;;;1.39;64.32;101477.41;5092462;28;20484;-41
2024/01/11 12:30:34;;;;;;;18.92;11.98;;;;;;;1.87;62.02;101471.19;5092102;28;20032;-43
2024/01/11 12:33:01;;;;;;;13.45;9.80;;;;;;;1.50;62.47;101466.31;5092718;28;20488;-40
2024/01/11 12:35:27;;;;;;;16.40;10.98;;;;;;;1.52;62.73;101467.94;5092656;28;20063;-42
2024/01/11 12:38:00;;;;;;;21.30;11.55;;;;;;;1.73;62.84;101452.72;5092306;28;20039;-43
2024/01/11 12:40:27;;;;;;;17.45;11.88;;;;;;;1.39;64.01;101468.69;5092447;28;20078;-41
2024/01/11 12:42:53;;;;;;;16.80;10.23;;;;;;;1.64;62.88;101474.28;5092533;28;20090;-40
2024/01/11 12:45:19;;;;;;;15.75;9.80;;;;;;;1.50;63.36;101479.44;5092337;28;20495;-42
2024/01/11 12:47:45;;;;;;;21.10;11.20;;;;;;;1.53;64.30;101474.03;5092183;28;20043;-41
2024/01/11 12:50:12;;;;;;;18.48;11.82;;;;;;;1.42;63.58;101479.00;5092328;28;20047;-42
2024/01/11 12:52:38;;;;;;;19.98;12.13;;;;;;;1.49;63.35;101465.44;5092271;28;20059;-41
2024/01/11 12:55:04;;;;;;;17.73;11.63;;;;;;;1.66;62.73;101466.31;5092335;28;20047;-41
2024/01/11 12:57:29;;;;;;;17.55;10.77;;;;;;;1.21;65.01;101457.41;5091974;28;20036;-42
2024/01/11 13:00:10;;;;;;;14.85;8.90;;;;;;;1.30;64.33;101467.41;5092153;28;20055;-41
2024/01/11 13:02:36;;;;;;;19.67;12.57;;;;;;;1.57;64.95;101455.38;5092172;28;20040;-40
2024/01/11 13:05:02;;;;;;;15.88;8.75;;;;;;;1.15;65.07;101452.50;5092188;28;20050;-41
2024/01/11 13:07:28;;;;;;;18.27;11.82;;;;;;;1.79;64.31;101447.13;5091783;28;20068;-40
2024/01/11 13:09:53;;;;;;;18.10;12.30;;;;;;;1.44;64.44;101456.16;5074037;28;20492;-40
2024/01/11 13:12:20;;;;;;;14.20;9.55;;;;;;;1.40;65.67;101454.63;5091998;28;20028;-42
2024/01/11 13:14:47;;;;;;;16.15;10.52;;;;;;;1.49;64.10;101456.72;5092070;28;20036;-41
2024/01/11 13:17:12;;;;;;;16.33;10.65;;;;;;;1.55;64.89;101453.75;5091401;28;20033;-42
2024/01/11 13:19:39;;;;;;;17.50;11.68;;;;;;;1.82;63.88;101457.44;5092097;28;20047;-42
2024/01/11 13:22:04;;;;;;;15.60;9.82;;;;;;;1.60;63.01;101459.59;5091877;28;20044;-41
2024/01/11 13:24:30;;;;;;;16.23;10.45;;;;;;;1.50;63.53;101458.41;5091954;28;20034;-42
2024/01/11 13:26:55;;;;;;;17.80;11.52;;;;;;;1.95;62.06;101459.38;5091541;28;20028;-41
2024/01/11 13:29:21;;;;;;;15.50;11.40;;;;;;;1.60;62.09;101467.50;5091881;28;20070;-40
2024/01/11 13:31:46;;;;;;;16.52;10.95;;;;;;;1.63;62.88;101472.59;5091900;28;20036;-43
2024/01/11 13:34:11;;;;;;;15.35;10.45;;;;;;;1.65;63.12;101473.34;5092019;28;20086;-43
2024/01/11 13:36:37;;;;;;;19.90;11.50;;;;;;;1.57;62.60;101478.19;5091540;28;20118;-42
2024/01/11 13:39:02;;;;;;;15.27;8.95;;;;;;;1.51;62.60;101478.53;5091699;28;20051;-42
2024/01/11 13:41:28;;;;;;;16.55;10.85;;;;;;;1.72;61.59;101466.81;5091658;28;20043;-42
2024/01/11 13:43:54;;;;;;;16.95;9.82;;;;;;;1.75;62.04;101468.41;5095026;28;20055;-42
2024/01/11 13:46:20;;;;;;;16.77;10.77;;;;;;;1.77;61.64;101466.56;5095712;28;20067;-41
2024/01/11 13:48:46;;;;;;;15.55;10.70;;;;;;;1.39;61.47;101479.19;5095662;28;20067;-40
2024/01/11 13:51:13;;;;;;;12.10;7.88;;;;;;;1.43;62.72;101472.81;5095652;28;20043;-40
2024/01/11 13:53:38;;;;;;;17.80;10.67;;;;;;;1.50;62.31;101477.69;5094430;28;20545;-43
2024/01/11 13:56:04;;;;;;;14.93;8.98;;;;;;;1.36;62.49;101477.56;5095544;28;20044;-40
2024/01/11 13:58:29;;;;;;;14.32;9.57;;;;;;;1.43;62.89;101478.91;5095372;28;20035;-38
2024/01/11 14:00:55;;;;;;;18.58;10.48;;;;;;;1.41;63.47;101482.56;5095461;28;20423;-38
2024/01/11 14:03:20;;;;;;;16.67;10.63;;;;;;;1.51;63.79;101486.41;5095544;28;20046;-42
2024/01/11 14:05:47;;;;;;;14.57;9.88;;;;;;;1.49;64.26;101488.25;5095251;28;20051;-37
2024/01/11 14:08:12;;;;;;;17.95;10.50;;;;;;;1.52;64.64;101498.59;5095138;28;20059;-42
2024/01/11 14:10:38;;;;;;;15.70;10.38;;;;;;;1.51;65.69;101496.91;5095405;28;20403;-40
2024/01/11 14:13:03;;;;;;;12.65;9.57;;;;;;;1.31;66.23;101503.25;5095331;28;20089;-40
2024/01/11 14:15:29;;;;;;;16.75;9.20;;;;;;;1.21;66.74;101502.03;5095240;28;20040;-40
2024/01/11 14:17:54;;;;;;;17.38;11.07;;;;;;;1.31;66.29;101498.84;5094862;28;20039;-40
2024/01/11 14:20:20;;;;;;;18.52;11.02;;;;;;;1.32;66.42;101495.28;5095002;28;20027;-40
2024/01/11 14:22:49;;;;;;;16.40;11.35;;;;;;;1.37;66.28;101502.91;5094967;28;20031;-39
2024/01/11 14:25:15;;;;;;;13.07;9.38;;;;;;;1.24;65.63;101507.09;5094881;28;20035;-40
2024/01/11 14:27:41;;;;;;;16.33;11.25;;;;;;;1.37;66.13;101510.78;5093284;28;20074;-37
2024/01/11 14:30:07;;;;;;;19.13;12.02;;;;;;;1.11;67.41;101506.94;5095098;28;20060;-38
2024/01/11 14:32:33;;;;;;;19.40;12.10;;;;;;;1.16;68.11;101510.16;5095041;28;20040;-41
2024/01/11 14:35:03;;;;;;;17.52;11.30;;;;;;;0.88;68.46;101515.19;5094807;28;20036;-38
2024/01/11 14:37:28;;;;;;;17.67;11.02;;;;;;;0.92;69.35;101514.09;5094676;28;20040;-41
2024/01/11 14:39:54;;;;;;;13.93;9.23;;;;;;;0.76;69.98;101512.25;5094918;28;20032;-41
2024/01/11 14:42:19;;;;;;;17.05;11.38;;;;;;;0.76;69.73;101508.78;5094758;28;20084;-43
2024/01/11 14:44:44;;;;;;;20.42;12.38;;;;;;;0.85;69.80;101499.56;5094769;28;20040;-41
2024/01/11 14:47:10;;;;;;;13.93;9.35;;;;;;;0.71;70.31;101497.69;5094546;28;20479;-39
2024/01/11 14:49:35;;;;;;;15.93;10.27;;;;;;;0.61;70.95;101501.72;5094722;28;20040;-41
2024/01/11 14:52:00;;;;;;;18.52;11.52;;;;;;;0.60;71.15;101519.25;5094740;28;20043;-42
2024/01/11 14:54:27;;;;;;;16.92;9.93;;;;;;;0.52;71.47;101516.13;5094136;28;20499;-40
2024/01/11 14:56:53;;;;;;;18.80;8.68;;;;;;;0.40;71.75;101515.00;5094218;28;20070;-42
2024/01/11 14:59:18;;;;;;;19.38;10.40;;;;;;;0.36;72.81;101520.47;5094475;28;20064;-41
2024/01/11 15:01:43;;;;;;;16.30;10.77;;;;;;;0.32;72.35;101516.28;5094417;28;20098;-41
2024/01/11 15:04:09;;;;;;;17.70;10.73;;;;;;;0.37;72.94;101516.91;5094422;28;20044;-39
2024/01/11 15:06:34;;;;;;;17.15;11.02;;;;;;;0.27;73.20;101524.41;5087980;28;20515;-39
2024/01/11 15:09:00;;;;;;;19.38;10.95;;;;;;;0.23;74.06;101528.09;5083131;28;20461;-38
2024/01/11 15:11:26;;;;;;;17.40;10.18;;;;;;;0.20;74.36;101523.88;5084696;28;20107;-37
2024/01/11 15:13:52;;;;;;;17.70;10.68;;;;;;;0.15;75.17;101525.84;5083170;28;20055;-38
2024/01/11 15:16:18;;;;;;;17.95;12.05;;;;;;;0.13;75.81;101532.06;5083135;28;20631;-39
2024/01/11 15:18:45;;;;;;;20.58;12.45;;;;;;;0.06;75.78;101535.91;5084547;28;20036;-39
2024/01/11 15:21:10;;;;;;;17.38;10.75;;;;;;;0.05;75.92;101534.22;5084340;28;20408;-40
2024/01/11 15:23:36;;;;;;;18.85;10.45;;;;;;;0.03;76.04;101536.94;5082343;28;20048;-38
2024/01/11 15:26:01;;;;;;;16.73;11.27;;;;;;;-0.03;76.95;101542.47;5083712;28;20069;-40
2024/01/11 15:28:27;;;;;;;19.20;10.77;;;;;;;-0.14;77.25;101548.22;5083515;28;20040;-40
2024/01/11 15:30:52;;;;;;;17.15;11.38;;;;;;;-0.27;78.27;101540.09;5082211;28;20111;-40
2024/01/11 15:33:17;;;;;;;19.80;11.15;;;;;;;-0.25;77.92;101547.88;5082712;28;20044;-40
2024/01/11 15:35:43;;;;;;;17.88;11.07;;;;;;;-0.31;78.56;101540.31;5082042;28;20032;-40
2024/01/11 15:38:08;;;;;;;19.48;13.27;;;;;;;-0.39;79.25;101542.44;5083691;28;20032;-41
2024/01/11 15:40:34;;;;;;;21.63;13.13;;;;;;;-0.45;79.69;101546.22;5082692;28;20040;-41
2024/01/11 15:42:59;;;;;;;19.85;11.90;;;;;;;-0.40;79.43;101545.97;5082746;28;20089;-42
2024/01/11 15:45:24;;;;;;;18.15;12.57;;;;;;;-0.54;81.74;101554.47;5083716;28;20162;-39
2024/01/11 15:47:50;;;;;;;19.05;12.05;;;;;;;-0.52;81.02;101555.25;5082919;28;20107;-38
2024/01/11 15:50:15;;;;;;;19.73;12.23;;;;;;;-0.62;82.77;101553.97;5083605;28;20484;-40
2024/01/11 15:52:40;;;;;;;21.00;12.48;;;;;;;-0.72;84.82;101563.16;5081708;28;20066;-41
2024/01/11 15:55:08;;;;;;;25.02;15.00;;;;;;;-0.65;85.47;101557.59;5083644;28;20043;-39
2024/01/11 15:57:35;;;;;;;;;;;;;;;-0.62;84.89;101557.44;5082731;28;20048;-38
2024/01/11 16:00:09;;;;;;;20.95;13.13;;;;;;;-0.66;88.70;101560.25;5080676;28;19912;-40
2024/01/11 16:02:38;;;;;;;20.98;12.98;;;;;;;-0.72;86.36;101563.16;5074951;28;20127;-43
2024/01/11 16:05:04;;;;;;;21.55;12.30;;;;;;;-0.83;85.37;101563.66;5071930;28;20047;-44
2024/01/11 16:07:29;;;;;;;19.95;12.65;;;;;;;-0.65;90.29;101564.59;5076743;28;20024;-40
2024/01/11 16:09:54;;;;;;;25.42;14.05;;;;;;;-0.61;88.89;101566.13;5093096;28;20549;-41
2024/01/11 16:12:20;;;;;;;23.45;13.05;;;;;;;-0.83;87.65;101567.09;5093074;28;20036;-40
2024/01/11 16:14:46;;;;;;;26.13;14.48;;;;;;;-0.83;87.31;101574.97;5092878;28;20071;-41
2024/01/11 16:17:11;;;;;;;23.58;14.25;;;;;;;-0.98;86.93;101580.88;5080626;28;20185;-42
2024/01/11 16:19:37;;;;;;;20.90;14.82;;;;;;;-0.95;86.44;101587.72;5081884;28;20115;-43
2024/01/11 16:22:03;;;;;;;23.55;13.52;;;;;;;-0.92;87.74;101583.19;5081892;28;20048;-40
2024/01/11 16:24:29;;;;;;;21.60;13.95;;;;;;;-1.08;87.14;101590.03;5084623;28;20037;-44
2024/01/11 16:26:55;;;;;;;21.17;13.57;;;;;;;-1.15;87.41;101585.97;5080724;28;20516;-38
2024/01/11 16:29:20;;;;;;;22.17;14.70;;;;;;;-1.15;88.56;101592.06;5082602;28;20119;-42
2024/01/11 16:31:45;;;;;;;21.13;13.63;;;;;;;-1.21;88.80;101588.84;5080449;28;20120;-41
2024/01/11 16:34:11;;;;;;;20.17;12.48;;;;;;;-1.10;88.86;101590.09;5083030;28;20097;-39